createdAt,value
2018-07-06T00:00:03.103Z,15.98
2018-07-06T00:00:07.337Z,15.98
2018-07-06T00:00:11.324Z,15.98
2018-07-06T00:00:15.641Z,15.99
2018-07-06T00:00:19.844Z,15.98
2018-07-06T00:00:23.947Z,15.99
2018-07-06T00:00:28.159Z,15.99
2018-07-06T00:00:32.469Z,15.98
2018-07-06T00:00:36.676Z,15.98
2018-07-06T00:00:40.991Z,15.99
2018-07-06T00:00:45.304Z,15.99
2018-07-06T00:00:49.511Z,15.98
2018-07-06T00:00:53.832Z,15.99
2018-07-06T00:00:58.049Z,15.99
2018-07-06T00:01:02.361Z,15.98
2018-07-06T00:01:06.351Z,15.98
2018-07-06T00:01:10.449Z,15.98
2018-07-06T00:01:14.771Z,15.99
2018-07-06T00:01:18.983Z,15.97
2018-07-06T00:01:23.189Z,15.98
2018-07-06T00:01:27.399Z,15.98
2018-07-06T00:01:31.492Z,15.98
2018-07-06T00:01:35.703Z,15.98
2018-07-06T00:01:39.905Z,15.98
2018-07-06T00:01:44.217Z,15.98
2018-07-06T00:01:48.530Z,15.98
2018-07-06T00:01:52.846Z,15.98
2018-07-06T00:01:57.159Z,15.98
2018-07-06T00:02:01.381Z,15.98
2018-07-06T00:02:05.705Z,15.98
2018-07-06T00:02:09.794Z,15.97
2018-07-06T00:02:13.999Z,15.97
2018-07-06T00:02:18.142Z,15.97
2018-07-06T00:02:22.445Z,15.98
2018-07-06T00:02:26.655Z,15.97
2018-07-06T00:02:30.859Z,15.97
2018-07-06T00:02:35.070Z,15.98
2018-07-06T00:02:39.271Z,15.97
2018-07-06T00:02:43.639Z,15.98
2018-07-06T00:02:47.960Z,15.98
2018-07-06T00:02:52.167Z,15.97
2018-07-06T00:02:56.475Z,15.97
2018-07-06T00:03:00.785Z,15.98
2018-07-06T00:03:04.892Z,15.98
2018-07-06T00:03:08.988Z,15.98
2018-07-06T00:03:13.206Z,15.98
2018-07-06T00:03:17.524Z,15.99
2018-07-06T00:03:21.777Z,15.99
2018-07-06T00:03:26.086Z,15.98
2018-07-06T00:03:30.395Z,15.98
2018-07-06T00:03:34.593Z,15.99
2018-07-06T00:03:38.691Z,15.99
2018-07-06T00:03:42.997Z,15.99
2018-07-06T00:03:47.304Z,15.99
2018-07-06T00:03:51.613Z,15.98
2018-07-06T00:03:55.917Z,15.99
2018-07-06T00:04:00.128Z,15.98
2018-07-06T00:04:04.335Z,15.98
2018-07-06T00:04:08.430Z,15.98
2018-07-06T00:04:12.738Z,15.98
2018-07-06T00:04:16.842Z,15.98
2018-07-06T00:04:20.953Z,15.98
2018-07-06T00:04:25.049Z,15.98
2018-07-06T00:04:29.041Z,15.98
2018-07-06T00:04:33.252Z,15.98
2018-07-06T00:04:37.458Z,15.99
2018-07-06T00:04:41.669Z,15.98
2018-07-06T00:04:45.982Z,15.99
2018-07-06T00:04:50.290Z,15.98
2018-07-06T00:04:54.488Z,15.99
2018-07-06T00:04:58.693Z,15.99
2018-07-06T00:05:03.001Z,15.98
2018-07-06T00:05:07.202Z,15.98
2018-07-06T00:05:11.520Z,15.98
2018-07-06T00:05:15.825Z,15.98
2018-07-06T00:05:20.132Z,15.98
2018-07-06T00:05:24.238Z,15.99
2018-07-06T00:05:28.551Z,15.98
2018-07-06T00:05:32.752Z,15.98
2018-07-06T00:05:36.955Z,15.98
2018-07-06T00:05:41.173Z,15.98
2018-07-06T00:05:45.482Z,15.99
2018-07-06T00:05:49.687Z,15.99
2018-07-06T00:05:53.997Z,15.98
2018-07-06T00:05:58.306Z,15.98
2018-07-06T00:06:02.404Z,15.99
2018-07-06T00:06:06.397Z,16
2018-07-06T00:06:10.604Z,15.99
2018-07-06T00:06:14.915Z,16
2018-07-06T00:06:19.119Z,15.99
2018-07-06T00:06:23.425Z,15.99
2018-07-06T00:06:27.519Z,15.99
2018-07-06T00:06:31.827Z,16
2018-07-06T00:06:35.920Z,16
2018-07-06T00:06:40.123Z,15.99
2018-07-06T00:07:16.479Z,15.99
2018-07-06T00:07:20.787Z,15.99
2018-07-06T00:07:25.097Z,15.99
2018-07-06T00:07:29.303Z,15.99
2018-07-06T00:07:33.400Z,15.98
2018-07-06T00:07:37.605Z,15.99
2018-07-06T00:07:41.907Z,15.99
2018-07-06T00:07:46.114Z,15.99
2018-07-06T00:07:50.203Z,15.99
2018-07-06T00:07:54.398Z,15.99
2018-07-06T00:07:58.597Z,15.99
2018-07-06T00:08:02.698Z,15.99
2018-07-06T00:08:06.918Z,15.99
2018-07-06T00:08:11.228Z,15.99
2018-07-06T00:08:15.535Z,15.98
2018-07-06T00:08:19.634Z,15.99
2018-07-06T00:08:23.731Z,15.98
2018-07-06T00:08:27.930Z,15.99
2018-07-06T00:08:32.140Z,15.99
2018-07-06T00:08:36.336Z,15.99
2018-07-06T00:08:40.647Z,15.99
2018-07-06T00:08:44.850Z,15.99
2018-07-06T00:08:49.160Z,15.99
2018-07-06T00:08:53.150Z,15.98
2018-07-06T00:08:57.359Z,15.98
2018-07-06T00:09:01.559Z,15.98
2018-07-06T00:09:05.545Z,15.98
2018-07-06T00:09:09.536Z,15.99
2018-07-06T00:09:13.736Z,15.99
2018-07-06T00:09:17.949Z,15.99
2018-07-06T00:09:22.157Z,15.99
2018-07-06T00:09:26.361Z,15.98
2018-07-06T00:09:30.667Z,15.98
2018-07-06T00:09:34.873Z,15.98
2018-07-06T00:09:39.183Z,15.98
2018-07-06T00:09:43.492Z,15.98
2018-07-06T00:09:47.811Z,15.98
2018-07-06T00:09:52.123Z,15.98
2018-07-06T00:09:56.447Z,15.99
2018-07-06T00:10:00.650Z,15.98
2018-07-06T00:10:04.641Z,15.98
2018-07-06T00:10:08.739Z,15.99
2018-07-06T00:10:12.940Z,15.98
2018-07-06T00:10:17.145Z,15.99
2018-07-06T00:10:21.345Z,15.99
2018-07-06T00:10:25.446Z,15.98
2018-07-06T00:10:29.757Z,15.98
2018-07-06T00:10:34.069Z,15.99
2018-07-06T00:10:38.388Z,15.99
2018-07-06T00:10:42.692Z,15.99
2018-07-06T00:10:47.004Z,15.99
2018-07-06T00:10:51.223Z,15.99
2018-07-06T00:10:55.740Z,16
2018-07-06T00:11:00.314Z,15.99
2018-07-06T00:11:04.849Z,15.99
2018-07-06T00:11:09.406Z,15.99
2018-07-06T00:11:13.510Z,15.99
2018-07-06T00:11:17.719Z,16
2018-07-06T00:11:22.087Z,15.99
2018-07-06T00:11:26.396Z,15.99
2018-07-06T00:11:30.606Z,15.99
2018-07-06T00:11:34.812Z,15.99
2018-07-06T00:11:39.019Z,15.99
2018-07-06T00:11:43.210Z,15.99
2018-07-06T00:11:47.417Z,15.99
2018-07-06T00:11:51.513Z,15.98
2018-07-06T00:11:55.721Z,15.99
2018-07-06T00:12:00.037Z,15.99
2018-07-06T00:12:04.140Z,15.99
2018-07-06T00:12:08.137Z,16
2018-07-06T00:12:12.450Z,16
2018-07-06T00:12:16.827Z,15.99
2018-07-06T00:12:21.324Z,15.99
2018-07-06T00:12:25.908Z,15.99
2018-07-06T00:12:30.578Z,15.99
2018-07-06T00:12:34.847Z,15.99
2018-07-06T00:12:38.946Z,16
2018-07-06T00:12:43.143Z,16
2018-07-06T00:12:47.346Z,15.99
2018-07-06T00:12:51.554Z,16
2018-07-06T00:12:55.867Z,15.99
2018-07-06T00:13:00.180Z,15.99
2018-07-06T00:13:04.391Z,15.99
2018-07-06T00:13:08.708Z,15.99
2018-07-06T00:13:12.914Z,15.98
2018-07-06T00:13:17.083Z,16
2018-07-06T00:13:21.288Z,16
2018-07-06T00:13:25.497Z,16
2018-07-06T00:13:29.597Z,16
2018-07-06T00:13:33.900Z,16.01
2018-07-06T00:13:37.995Z,16
2018-07-06T00:13:42.306Z,16.01
2018-07-06T00:13:46.618Z,16.01
2018-07-06T00:13:50.924Z,16
2018-07-06T00:13:55.124Z,16
2018-07-06T00:13:59.442Z,16
2018-07-06T00:14:03.808Z,15.99
2018-07-06T00:14:08.009Z,16
2018-07-06T00:14:12.212Z,15.99
2018-07-06T00:14:16.530Z,15.99
2018-07-06T00:14:20.623Z,15.99
2018-07-06T00:14:24.824Z,16
2018-07-06T00:14:28.923Z,15.99
2018-07-06T00:14:33.232Z,16
2018-07-06T00:14:37.445Z,16
2018-07-06T00:14:41.749Z,15.99
2018-07-06T00:14:45.964Z,15.98
2018-07-06T00:14:50.279Z,15.99
2018-07-06T00:14:54.497Z,15.99
2018-07-06T00:14:58.706Z,15.99
2018-07-06T00:15:02.802Z,15.98
2018-07-06T00:15:06.898Z,15.99
2018-07-06T00:15:11.099Z,15.99
2018-07-06T00:15:15.404Z,15.99
2018-07-06T00:15:19.396Z,16
2018-07-06T00:15:23.708Z,15.99
2018-07-06T00:15:28.020Z,15.99
2018-07-06T00:15:32.228Z,15.99
2018-07-06T00:15:36.531Z,15.99
2018-07-06T00:15:40.844Z,15.98
2018-07-06T00:15:45.050Z,15.99
2018-07-06T00:15:49.359Z,15.99
2018-07-06T00:15:53.667Z,15.99
2018-07-06T00:15:58.020Z,16
2018-07-06T00:16:02.219Z,15.99
2018-07-06T00:16:06.212Z,15.99
2018-07-06T00:16:10.546Z,15.99
2018-07-06T00:16:14.636Z,15.99
2018-07-06T00:16:18.737Z,16
2018-07-06T00:16:22.829Z,16
2018-07-06T00:16:27.034Z,15.99
2018-07-06T00:16:31.238Z,15.99
2018-07-06T00:16:35.450Z,15.99
2018-07-06T00:16:39.771Z,15.99
2018-07-06T00:16:43.975Z,15.99
2018-07-06T00:16:48.180Z,15.99
2018-07-06T00:16:52.389Z,15.99
2018-07-06T00:16:56.587Z,15.98
2018-07-06T00:17:00.891Z,15.99
2018-07-06T00:17:05.202Z,15.99
2018-07-06T00:17:09.297Z,15.99
2018-07-06T00:17:13.392Z,15.99
2018-07-06T00:17:17.712Z,15.98
2018-07-06T00:17:22.020Z,15.98
2018-07-06T00:17:26.231Z,15.99
2018-07-06T00:17:30.450Z,15.99
2018-07-06T00:17:34.552Z,15.99
2018-07-06T00:17:38.443Z,16
2018-07-06T00:17:42.647Z,15.98
2018-07-06T00:17:46.857Z,15.99
2018-07-06T00:17:51.085Z,15.99
2018-07-06T00:17:55.181Z,15.99
2018-07-06T00:17:59.384Z,15.99
2018-07-06T00:18:03.484Z,15.99
2018-07-06T00:18:07.489Z,15.99
2018-07-06T00:18:11.807Z,15.99
2018-07-06T00:18:16.015Z,15.99
2018-07-06T00:18:20.216Z,16
2018-07-06T00:18:24.524Z,16
2018-07-06T00:18:28.624Z,16
2018-07-06T00:18:32.933Z,15.99
2018-07-06T00:18:37.238Z,16
2018-07-06T00:18:41.444Z,16
2018-07-06T00:18:45.754Z,16
2018-07-06T00:18:50.070Z,15.99
2018-07-06T00:18:54.436Z,15.99
2018-07-06T00:18:58.541Z,15.99
2018-07-06T00:19:02.746Z,16
2018-07-06T00:19:07.056Z,15.99
2018-07-06T00:19:11.261Z,15.99
2018-07-06T00:19:15.576Z,16
2018-07-06T00:19:19.780Z,16
2018-07-06T00:19:23.978Z,16
2018-07-06T00:19:27.753Z,16
2018-07-06T00:19:31.849Z,16.01
2018-07-06T00:19:36.054Z,16
2018-07-06T00:19:40.262Z,16
2018-07-06T00:19:44.570Z,16
2018-07-06T00:19:48.880Z,16
2018-07-06T00:19:53.188Z,16
2018-07-06T00:19:57.388Z,16.02
2018-07-06T00:20:01.486Z,16.01
2018-07-06T00:20:05.598Z,16
2018-07-06T00:20:09.961Z,16
2018-07-06T00:20:14.270Z,16
2018-07-06T00:20:18.584Z,16.01
2018-07-06T00:20:22.902Z,16.02
2018-07-06T00:20:27.101Z,16.01
2018-07-06T00:20:31.300Z,16.01
2018-07-06T00:20:35.502Z,16.01
2018-07-06T00:20:39.811Z,16.01
2018-07-06T00:20:44.119Z,16.01
2018-07-06T00:20:48.426Z,16.01
2018-07-06T00:20:52.629Z,16
2018-07-06T00:20:56.940Z,16.01
2018-07-06T00:21:01.136Z,16.01
2018-07-06T00:21:05.343Z,16
2018-07-06T00:21:09.653Z,16.01
2018-07-06T00:21:13.745Z,16.01
2018-07-06T00:21:17.841Z,16.01
2018-07-06T00:21:22.041Z,16.02
2018-07-06T00:21:26.357Z,16.01
2018-07-06T00:21:30.562Z,16.01
2018-07-06T00:21:34.658Z,16.02
2018-07-06T00:21:38.858Z,16.01
2018-07-06T00:21:43.064Z,16.02
2018-07-06T00:21:47.374Z,16.02
2018-07-06T00:21:51.576Z,16.02
2018-07-06T00:21:55.891Z,16.01
2018-07-06T00:22:00.196Z,16.01
2018-07-06T00:22:04.517Z,16.01
2018-07-06T00:22:08.399Z,16.02
2018-07-06T00:22:12.722Z,16.02
2018-07-06T00:22:16.923Z,16.01
2018-07-06T00:22:21.235Z,16.01
2018-07-06T00:22:25.543Z,16.01
2018-07-06T00:22:29.639Z,16.02
2018-07-06T00:22:33.843Z,16.01
2018-07-06T00:22:38.040Z,16.01
2018-07-06T00:22:42.353Z,16.01
2018-07-06T00:22:46.560Z,16.01
2018-07-06T00:22:50.810Z,16.02
2018-07-06T00:22:55.129Z,16.02
2018-07-06T00:22:59.434Z,16.02
2018-07-06T00:23:03.637Z,16.01
2018-07-06T00:23:07.845Z,16.02
2018-07-06T00:23:12.150Z,16.02
2018-07-06T00:23:16.364Z,16.01
2018-07-06T00:23:20.716Z,16.02
2018-07-06T00:23:24.926Z,16.01
2018-07-06T00:23:29.141Z,16.01
2018-07-06T00:23:33.351Z,16.02
2018-07-06T00:23:37.662Z,16.01
2018-07-06T00:23:41.860Z,16.01
2018-07-06T00:23:46.179Z,16.01
2018-07-06T00:23:50.379Z,16.02
2018-07-06T00:23:54.482Z,16.01
2018-07-06T00:23:58.790Z,16.01
2018-07-06T00:24:03.155Z,16
2018-07-06T00:24:07.354Z,16.01
2018-07-06T00:24:11.553Z,16.02
2018-07-06T00:24:15.752Z,16.01
2018-07-06T00:24:20.064Z,16.01
2018-07-06T00:24:24.373Z,16.01
2018-07-06T00:24:28.477Z,16
2018-07-06T00:24:32.787Z,16.01
2018-07-06T00:24:36.887Z,16.01
2018-07-06T00:24:41.197Z,16.01
2018-07-06T00:24:45.414Z,16.01
2018-07-06T00:24:49.615Z,16.02
2018-07-06T00:24:53.828Z,16.02
2018-07-06T00:24:58.137Z,16.02
2018-07-06T00:25:02.242Z,16.02
2018-07-06T00:25:06.244Z,16.01
2018-07-06T00:25:10.444Z,16.02
2018-07-06T00:25:14.749Z,16.02
2018-07-06T00:25:19.000Z,16.02
2018-07-06T00:25:23.316Z,16.02
2018-07-06T00:25:27.515Z,16.02
2018-07-06T00:25:31.713Z,16.02
2018-07-06T00:25:35.925Z,16.02
2018-07-06T00:25:40.130Z,16.02
2018-07-06T00:25:44.323Z,16.01
2018-07-06T00:25:48.521Z,16.02
2018-07-06T00:25:52.730Z,16.02
2018-07-06T00:25:56.940Z,16.02
2018-07-06T00:26:01.251Z,16.02
2018-07-06T00:26:05.357Z,16.03
2018-07-06T00:26:09.566Z,16.03
2018-07-06T00:26:13.763Z,16.03
2018-07-06T00:26:18.076Z,16.03
2018-07-06T00:26:22.172Z,16.04
2018-07-06T00:26:26.267Z,16.03
2018-07-06T00:26:30.476Z,16.03
2018-07-06T00:26:34.788Z,16.03
2018-07-06T00:26:39.003Z,16.03
2018-07-06T00:26:43.140Z,16.03
2018-07-06T00:26:47.237Z,16.02
2018-07-06T00:26:51.343Z,16.03
2018-07-06T00:26:55.658Z,16.02
2018-07-06T00:26:59.976Z,16.03
2018-07-06T00:27:04.180Z,16.04
2018-07-06T00:27:08.280Z,16.04
2018-07-06T00:27:12.590Z,16.03
2018-07-06T00:27:16.901Z,16.03
2018-07-06T00:27:21.212Z,16.03
2018-07-06T00:27:25.527Z,16.03
2018-07-06T00:27:29.835Z,16.03
2018-07-06T00:27:34.039Z,16.03
2018-07-06T00:27:38.345Z,16.03
2018-07-06T00:27:42.556Z,16.03
2018-07-06T00:27:46.762Z,16.03
2018-07-06T00:27:51.070Z,16.03
2018-07-06T00:27:55.385Z,16.03
2018-07-06T00:27:59.694Z,16.03
2018-07-06T00:28:03.796Z,16.03
2018-07-06T00:28:07.890Z,16.03
2018-07-06T00:28:12.194Z,16.03
2018-07-06T00:28:16.286Z,16.03
2018-07-06T00:28:20.381Z,16.03
2018-07-06T00:28:24.696Z,16.02
2018-07-06T00:28:29.007Z,16.02
2018-07-06T00:28:33.212Z,16.02
2018-07-06T00:28:37.424Z,16.03
2018-07-06T00:28:41.737Z,16.03
2018-07-06T00:28:46.046Z,16.02
2018-07-06T00:28:50.361Z,16.04
2018-07-06T00:28:54.456Z,16.03
2018-07-06T00:28:58.668Z,16.04
2018-07-06T00:29:02.883Z,16.04
2018-07-06T00:29:07.099Z,16.03
2018-07-06T00:29:11.304Z,16.03
2018-07-06T00:29:15.403Z,16.04
2018-07-06T00:29:19.713Z,16.04
2018-07-06T00:29:23.807Z,16.04
2018-07-06T00:29:27.795Z,16.04
2018-07-06T00:29:32.000Z,16.03
2018-07-06T00:29:36.204Z,16.03
2018-07-06T00:29:40.517Z,16.04
2018-07-06T00:29:44.833Z,16.04
2018-07-06T00:29:48.933Z,16.04
2018-07-06T00:29:53.254Z,16.03
2018-07-06T00:29:57.566Z,16.03
2018-07-06T00:30:01.768Z,16.03
2018-07-06T00:30:05.867Z,16.05
2018-07-06T00:30:09.973Z,16.04
2018-07-06T00:30:14.178Z,16.04
2018-07-06T00:30:18.390Z,16.04
2018-07-06T00:30:22.597Z,16.04
2018-07-06T00:30:26.913Z,16.04
2018-07-06T00:30:31.107Z,16.04
2018-07-06T00:30:35.416Z,16.04
2018-07-06T00:30:39.725Z,16.04
2018-07-06T00:30:44.036Z,16.04
2018-07-06T00:30:48.153Z,16.04
2018-07-06T00:30:52.463Z,16.04
2018-07-06T00:30:56.778Z,16.04
2018-07-06T00:31:00.977Z,16.04
2018-07-06T00:31:05.251Z,16.04
2018-07-06T00:31:09.452Z,16.04
2018-07-06T00:31:13.763Z,16.04
2018-07-06T00:31:18.069Z,16.04
2018-07-06T00:31:22.270Z,16.04
2018-07-06T00:31:26.374Z,16.05
2018-07-06T00:31:30.688Z,16.04
2018-07-06T00:31:34.896Z,16.05
2018-07-06T00:31:39.098Z,16.04
2018-07-06T00:31:43.411Z,16.05
2018-07-06T00:31:47.717Z,16.05
2018-07-06T00:31:52.028Z,16.05
2018-07-06T00:31:56.337Z,16.06
2018-07-06T00:32:00.659Z,16.06
2018-07-06T00:32:04.647Z,16.06
2018-07-06T00:32:08.742Z,16.06
2018-07-06T00:32:13.061Z,16.06
2018-07-06T00:32:17.379Z,16.06
2018-07-06T00:32:21.582Z,16.06
2018-07-06T00:32:25.687Z,16.05
2018-07-06T00:32:29.673Z,16.05
2018-07-06T00:32:33.889Z,16.06
2018-07-06T00:32:38.091Z,16.05
2018-07-06T00:32:42.416Z,16.05
2018-07-06T00:32:46.724Z,16.06
2018-07-06T00:32:50.718Z,16.05
2018-07-06T00:32:54.925Z,16.05
2018-07-06T00:32:59.022Z,16.04
2018-07-06T00:33:03.127Z,16.04
2018-07-06T00:33:07.337Z,16.05
2018-07-06T00:33:11.541Z,16.06
2018-07-06T00:33:15.752Z,16.05
2018-07-06T00:33:19.849Z,16.05
2018-07-06T00:33:24.051Z,16.04
2018-07-06T00:33:28.262Z,16.05
2018-07-06T00:33:32.356Z,16.05
2018-07-06T00:33:36.619Z,16.06
2018-07-06T00:33:40.822Z,16.06
2018-07-06T00:33:45.131Z,16.07
2018-07-06T00:33:49.445Z,16.06
2018-07-06T00:33:53.652Z,16.06
2018-07-06T00:33:57.861Z,16.07
2018-07-06T00:34:02.286Z,16.06
2018-07-06T00:34:06.602Z,16.06
2018-07-06T00:34:10.801Z,16.06
2018-07-06T00:34:15.009Z,16.06
2018-07-06T00:34:19.326Z,16.05
2018-07-06T00:34:23.645Z,16.06
2018-07-06T00:34:27.852Z,16.05
2018-07-06T00:34:32.171Z,16.06
2018-07-06T00:34:36.491Z,16.06
2018-07-06T00:34:40.804Z,16.06
2018-07-06T00:34:45.109Z,16.06
2018-07-06T00:34:49.418Z,16.06
2018-07-06T00:34:53.516Z,16.06
2018-07-06T00:34:57.825Z,16.06
2018-07-06T00:35:01.812Z,16.06
2018-07-06T00:35:05.809Z,16.06
2018-07-06T00:35:10.118Z,16.06
2018-07-06T00:35:14.316Z,16.07
2018-07-06T00:35:18.619Z,16.06
2018-07-06T00:35:22.827Z,16.06
2018-07-06T00:35:27.150Z,16.06
2018-07-06T00:35:31.137Z,16.06
2018-07-06T00:35:35.449Z,16.06
2018-07-06T00:35:39.760Z,16.06
2018-07-06T00:35:44.112Z,16.06
2018-07-06T00:35:48.313Z,16.08
2018-07-06T00:35:52.629Z,16.07
2018-07-06T00:35:56.870Z,16.06
2018-07-06T00:36:01.180Z,16.06
2018-07-06T00:36:05.383Z,16.06
2018-07-06T00:36:09.590Z,16.06
2018-07-06T00:36:13.684Z,16.06
2018-07-06T00:36:17.992Z,16.06
2018-07-06T00:36:22.305Z,16.07
2018-07-06T00:36:26.404Z,16.07
2018-07-06T00:36:30.718Z,16.07
2018-07-06T00:36:34.920Z,16.06
2018-07-06T00:36:39.385Z,16.06
2018-07-06T00:36:43.795Z,16.06
2018-07-06T00:36:48.718Z,16.07
2018-07-06T00:36:53.453Z,16.07
2018-07-06T00:36:57.660Z,16.07
2018-07-06T00:37:01.986Z,16.07
2018-07-06T00:37:06.307Z,16.07
2018-07-06T00:37:10.623Z,16.08
2018-07-06T00:37:14.937Z,16.08
2018-07-06T00:37:19.146Z,16.07
2018-07-06T00:37:23.342Z,16.07
2018-07-06T00:37:27.551Z,16.07
2018-07-06T00:37:31.752Z,16.07
2018-07-06T00:37:35.961Z,16.07
2018-07-06T00:37:40.273Z,16.07
2018-07-06T00:37:44.474Z,16.07
2018-07-06T00:37:48.794Z,16.08
2018-07-06T00:37:53.013Z,16.08
2018-07-06T00:37:57.329Z,16.07
2018-07-06T00:38:01.540Z,16.07
2018-07-06T00:38:05.634Z,16.07
2018-07-06T00:38:09.627Z,16.07
2018-07-06T00:38:13.934Z,16.07
2018-07-06T00:38:18.039Z,16.07
2018-07-06T00:38:22.242Z,16.07
2018-07-06T00:38:26.452Z,16.07
2018-07-06T00:38:30.768Z,16.06
2018-07-06T00:38:34.972Z,16.07
2018-07-06T00:38:39.291Z,16.06
2018-07-06T00:38:43.501Z,16.07
2018-07-06T00:38:47.822Z,16.07
2018-07-06T00:38:51.917Z,16.06
2018-07-06T00:38:56.223Z,16.07
2018-07-06T00:39:00.426Z,16.06
2018-07-06T00:39:04.518Z,16.07
2018-07-06T00:39:08.837Z,16.07
2018-07-06T00:39:13.198Z,16.07
2018-07-06T00:39:17.517Z,16.07
2018-07-06T00:39:21.827Z,16.07
2018-07-06T00:39:25.813Z,16.07
2018-07-06T00:39:30.013Z,16.06
2018-07-06T00:39:34.325Z,16.07
2018-07-06T00:39:38.528Z,16.07
2018-07-06T00:39:42.746Z,16.07
2018-07-06T00:39:47.054Z,16.07
2018-07-06T00:39:51.362Z,16.06
2018-07-06T00:39:55.683Z,16.07
2018-07-06T00:40:00.019Z,16.06
2018-07-06T00:40:04.172Z,16.07
2018-07-06T00:40:08.383Z,16.07
2018-07-06T00:40:12.697Z,16.06
2018-07-06T00:40:17.005Z,16.06
2018-07-06T00:40:21.213Z,16.07
2018-07-06T00:40:25.527Z,16.07
2018-07-06T00:40:29.732Z,16.07
2018-07-06T00:40:33.718Z,16.07
2018-07-06T00:40:38.029Z,16.07
2018-07-06T00:40:42.236Z,16.07
2018-07-06T00:40:46.439Z,16.07
2018-07-06T00:40:50.750Z,16.08
2018-07-06T00:40:55.062Z,16.07
2018-07-06T00:40:59.380Z,16.06
2018-07-06T00:41:03.368Z,16.07
2018-07-06T00:41:07.682Z,16.07
2018-07-06T00:41:11.995Z,16.07
2018-07-06T00:41:16.302Z,16.06
2018-07-06T00:41:20.615Z,16.07
2018-07-06T00:41:24.927Z,16.07
2018-07-06T00:41:29.132Z,16.07
2018-07-06T00:41:33.440Z,16.07
2018-07-06T00:41:37.640Z,16.06
2018-07-06T00:41:41.844Z,16.06
2018-07-06T00:41:45.836Z,16.07
2018-07-06T00:41:50.148Z,16.08
2018-07-06T00:41:54.353Z,16.06
2018-07-06T00:41:58.558Z,16.07
2018-07-06T00:42:02.810Z,16.07
2018-07-06T00:42:07.116Z,16.07
2018-07-06T00:42:11.106Z,16.07
2018-07-06T00:42:15.311Z,16.07
2018-07-06T00:42:19.620Z,16.06
2018-07-06T00:42:23.826Z,16.07
2018-07-06T00:42:28.027Z,16.07
2018-07-06T00:42:32.232Z,16.07
2018-07-06T00:42:36.440Z,16.07
2018-07-06T00:42:40.745Z,16.07
2018-07-06T00:42:44.947Z,16.07
2018-07-06T00:42:49.270Z,16.06
2018-07-06T00:42:53.489Z,16.07
2018-07-06T00:42:57.796Z,16.06
2018-07-06T00:43:01.894Z,16.08
2018-07-06T00:43:05.883Z,16.07
2018-07-06T00:43:10.083Z,16.07
2018-07-06T00:43:14.284Z,16.07
2018-07-06T00:43:18.486Z,16.07
2018-07-06T00:43:22.839Z,16.07
2018-07-06T00:43:27.046Z,16.08
2018-07-06T00:43:31.139Z,16.07
2018-07-06T00:43:35.465Z,16.07
2018-07-06T00:43:39.813Z,16.08
2018-07-06T00:43:44.134Z,16.08
2018-07-06T00:43:48.122Z,16.07
2018-07-06T00:43:52.433Z,16.08
2018-07-06T00:43:56.746Z,16.07
2018-07-06T00:44:00.954Z,16.07
2018-07-06T00:44:04.943Z,16.07
2018-07-06T00:44:09.269Z,16.08
2018-07-06T00:44:13.571Z,16.07
2018-07-06T00:44:17.775Z,16.07
2018-07-06T00:44:22.090Z,16.07
2018-07-06T00:44:26.189Z,16.08
2018-07-06T00:44:30.286Z,16.08
2018-07-06T00:44:34.484Z,16.07
2018-07-06T00:44:38.689Z,16.07
2018-07-06T00:44:42.785Z,16.07
2018-07-06T00:44:47.035Z,16.07
2018-07-06T00:44:51.343Z,16.08
2018-07-06T00:44:55.436Z,16.08
2018-07-06T00:44:59.746Z,16.07
2018-07-06T00:45:03.849Z,16.08
2018-07-06T00:45:07.839Z,16.09
2018-07-06T00:45:11.937Z,16.08
2018-07-06T00:45:16.034Z,16.08
2018-07-06T00:45:20.346Z,16.08
2018-07-06T00:45:24.658Z,16.08
2018-07-06T00:45:28.862Z,16.09
2018-07-06T00:45:32.961Z,16.09
2018-07-06T00:45:37.317Z,16.08
2018-07-06T00:45:41.637Z,16.09
2018-07-06T00:45:45.944Z,16.09
2018-07-06T00:45:50.252Z,16.09
2018-07-06T00:45:54.573Z,16.1
2018-07-06T00:45:58.783Z,16.08
2018-07-06T00:46:02.990Z,16.09
2018-07-06T00:46:07.192Z,16.09
2018-07-06T00:46:11.186Z,16.09
2018-07-06T00:46:15.500Z,16.09
2018-07-06T00:46:19.699Z,16.1
2018-07-06T00:46:24.012Z,16.1
2018-07-06T00:46:28.214Z,16.09
2018-07-06T00:46:32.203Z,16.09
2018-07-06T00:46:36.520Z,16.09
2018-07-06T00:46:40.729Z,16.1
2018-07-06T00:46:45.047Z,16.09
2018-07-06T00:46:49.142Z,16.1
2018-07-06T00:46:53.450Z,16.1
2018-07-06T00:46:57.652Z,16.1
2018-07-06T00:47:01.997Z,16.1
2018-07-06T00:47:06.308Z,16.1
2018-07-06T00:47:10.622Z,16.1
2018-07-06T00:47:14.827Z,16.09
2018-07-06T00:47:19.135Z,16.1
2018-07-06T00:47:23.355Z,16.09
2018-07-06T00:47:27.676Z,16.1
2018-07-06T00:47:31.986Z,16.1
2018-07-06T00:47:36.086Z,16.11
2018-07-06T00:47:40.390Z,16.1
2018-07-06T00:47:44.500Z,16.11
2018-07-06T00:47:48.715Z,16.1
2018-07-06T00:47:53.024Z,16.11
2018-07-06T00:47:57.228Z,16.1
2018-07-06T00:48:01.326Z,16.1
2018-07-06T00:48:05.533Z,16.1
2018-07-06T00:48:09.632Z,16.11
2018-07-06T00:48:13.945Z,16.11
2018-07-06T00:48:18.049Z,16.11
2018-07-06T00:48:22.252Z,16.11
2018-07-06T00:48:26.458Z,16.11
2018-07-06T00:48:30.762Z,16.11
2018-07-06T00:48:34.859Z,16.12
2018-07-06T00:48:39.083Z,16.12
2018-07-06T00:48:43.433Z,16.11
2018-07-06T00:48:47.712Z,16.1
2018-07-06T00:48:52.319Z,16.12
2018-07-06T00:48:57.206Z,16.11
2018-07-06T00:49:01.521Z,16.11
2018-07-06T00:49:05.520Z,16.11
2018-07-06T00:49:09.411Z,16.12
2018-07-06T00:49:13.609Z,16.11
2018-07-06T00:49:17.919Z,16.12
2018-07-06T00:49:22.122Z,16.12
2018-07-06T00:49:26.213Z,16.12
2018-07-06T00:49:30.308Z,16.11
2018-07-06T00:49:34.415Z,16.11
2018-07-06T00:49:38.514Z,16.11
2018-07-06T00:49:42.825Z,16.11
2018-07-06T00:49:46.930Z,16.12
2018-07-06T00:49:51.135Z,16.11
2018-07-06T00:49:55.454Z,16.11
2018-07-06T00:49:59.591Z,16.11
2018-07-06T00:50:03.803Z,16.1
2018-07-06T00:50:07.795Z,16.1
2018-07-06T00:50:11.894Z,16.1
2018-07-06T00:50:16.202Z,16.12
2018-07-06T00:50:20.408Z,16.11
2018-07-06T00:50:24.725Z,16.11
2018-07-06T00:50:28.927Z,16.1
2018-07-06T00:50:33.019Z,16.1
2018-07-06T00:50:37.123Z,16.11
2018-07-06T00:50:41.329Z,16.1
2018-07-06T00:50:45.424Z,16.1
2018-07-06T00:50:49.671Z,16.1
2018-07-06T00:50:53.981Z,16.1
2018-07-06T00:50:58.189Z,16.1
2018-07-06T00:51:02.295Z,16.1
2018-07-06T00:51:06.509Z,16.11
2018-07-06T00:51:10.828Z,16.1
2018-07-06T00:51:15.138Z,16.11
2018-07-06T00:51:19.446Z,16.1
2018-07-06T00:51:23.771Z,16.1
2018-07-06T00:51:27.975Z,16.11
2018-07-06T00:51:32.181Z,16.1
2018-07-06T00:51:36.490Z,16.1
2018-07-06T00:51:40.694Z,16.1
2018-07-06T00:51:45.007Z,16.1
2018-07-06T00:51:49.333Z,16.1
2018-07-06T00:51:53.538Z,16.1
2018-07-06T00:51:57.855Z,16.1
2018-07-06T00:52:02.062Z,16.1
2018-07-06T00:52:06.154Z,16.1
2018-07-06T00:52:10.250Z,16.1
2018-07-06T00:52:14.559Z,16.11
2018-07-06T00:52:18.771Z,16.11
2018-07-06T00:52:22.863Z,16.1
2018-07-06T00:52:27.065Z,16.1
2018-07-06T00:52:31.268Z,16.11
2018-07-06T00:52:35.492Z,16.1
2018-07-06T00:52:39.706Z,16.1
2018-07-06T00:52:44.019Z,16.11
2018-07-06T00:52:48.228Z,16.11
2018-07-06T00:52:52.429Z,16.09
2018-07-06T00:52:56.742Z,16.11
2018-07-06T00:53:01.052Z,16.11
2018-07-06T00:53:05.274Z,16.1
2018-07-06T00:53:09.055Z,16.1
2018-07-06T00:53:13.158Z,16.1
2018-07-06T00:53:17.261Z,16.11
2018-07-06T00:53:21.463Z,16.1
2018-07-06T00:53:25.561Z,16.1
2018-07-06T00:53:29.876Z,16.1
2018-07-06T00:53:34.075Z,16.1
2018-07-06T00:53:38.272Z,16.1
2018-07-06T00:53:42.584Z,16.11
2018-07-06T00:53:46.786Z,16.1
2018-07-06T00:53:50.995Z,16.11
2018-07-06T00:53:55.300Z,16.11
2018-07-06T00:53:59.608Z,16.11
2018-07-06T00:54:03.818Z,16.11
2018-07-06T00:54:07.911Z,16.11
2018-07-06T00:54:12.223Z,16.11
2018-07-06T00:54:16.435Z,16.11
2018-07-06T00:54:20.644Z,16.11
2018-07-06T00:54:24.852Z,16.11
2018-07-06T00:54:28.740Z,16.11
2018-07-06T00:54:32.943Z,16.1
2018-07-06T00:54:37.155Z,16.1
2018-07-06T00:54:41.301Z,16.1
2018-07-06T00:54:45.662Z,16.1
2018-07-06T00:54:50.293Z,16.1
2018-07-06T00:54:55.293Z,16.1
2018-07-06T00:54:59.810Z,16.11
2018-07-06T00:55:04.079Z,16.1
2018-07-06T00:55:07.962Z,16.1
2018-07-06T00:55:12.164Z,16.11
2018-07-06T00:55:16.480Z,16.11
2018-07-06T00:55:20.792Z,16.1
2018-07-06T00:55:24.994Z,16.11
2018-07-06T00:55:29.309Z,16.1